Newmarket, New Hampshire
Current Conditions -  °F | °C
As of 9:22 AM on Tuesday 27 Jan 2015 (Local Time) from KPSM Reporting Station
Moderate Snow Moderate Snow  
Wind Chill: -4°   Ceiling: 300
Heat Index: 14°   Visibility: 0.25mi
Dew Point: 10°   Wind: 22mph
Humidity: 86%   Direction: 10°N
Pressure: 29.58"   Gusts: 38mph
Location:  43.08°N, 70.94°W
Report Text: KPSM 271422Z 01019G33KT 1/4SM R34/3500FT SN BLSN VV003 M10/M12 A2958 RMK AO2A
Loading
Personal Weather Stations






























Interactive Weather Map New forecast layout! Learn more

10-Day Weather Forecast

Advertisements
Track Severe Weather on mobile